Time,TemperatureF,DewpointF,PressureIn,WindDirection,WindDirectionDegrees,WindSpeedMPH,WindSpeedGustMPH,Humidity,HourlyPrecipIn,Conditions,Clouds,dailyrainin,SolarRadiationWatts/m^2,SoftwareType,DateUTC
2013-08-13 00:00:00,65.0,57.0,-100.00,NW,315,3.0,-999.0,77,-99.99,,,-99.99,0.000000,,2013-08-13 04:00:00,
2013-08-13 00:42:00,65.0,57.0,-100.00,NW,315,3.0,-999.0,77,-99.99,,,-99.99,0.000000,,2013-08-13 04:42:00,
2013-08-13 00:53:00,65.0,57.0,-100.00,NW,315,3.0,-999.0,77,-99.99,,,-99.99,0.000000,,2013-08-13 04:53:00,
2013-08-13 01:00:00,63.0,56.0,-100.00,SSW,202,6.0,-999.0,77,-99.99,,,-99.99,0.000000,,2013-08-13 05:00:00,
2013-08-13 01:42:00,63.0,56.0,-100.00,SSW,202,6.0,-999.0,77,-99.99,,,-99.99,0.000000,,2013-08-13 05:42:00,
2013-08-13 01:52:00,63.0,56.0,-100.00,SSW,202,6.0,-999.0,77,-99.99,,,-99.99,0.000000,,2013-08-13 05:52:00,
2013-08-13 02:00:00,61.0,56.0,-100.00,NW,315,3.0,-999.0,84,-99.99,,,-99.99,0.000000,,2013-08-13 06:00:00,
2013-08-13 02:42:00,61.0,56.0,-100.00,NW,315,3.0,-999.0,84,-99.99,,,-99.99,0.000000,,2013-08-13 06:42:00,
2013-08-13 02:53:00,61.0,56.0,-100.00,NW,315,3.0,-999.0,84,-99.99,,,-99.99,0.000000,,2013-08-13 06:53:00,
2013-08-13 03:00:00,58.0,54.0,-100.00,NW,315,6.0,-999.0,85,-99.99,,,-99.99,0.000000,,2013-08-13 07:00:00,
2013-08-13 03:42:00,58.0,54.0,-100.00,NW,315,6.0,-999.0,85,-99.99,,,-99.99,0.000000,,2013-08-13 07:42:00,
2013-08-13 03:52:00,58.0,54.0,-100.00,NW,315,6.0,-999.0,85,-99.99,,,-99.99,0.000000,,2013-08-13 07:52:00,
2013-08-13 04:00:00,56.0,52.0,-100.00,NW,315,5.0,-999.0,87,-99.99,,,-99.99,0.000000,,2013-08-13 08:00:00,
2013-08-13 04:42:00,56.0,52.0,-100.00,NW,315,5.0,-999.0,87,-99.99,,,-99.99,0.000000,,2013-08-13 08:42:00,
2013-08-13 04:52:00,56.0,52.0,-100.00,NW,315,5.0,-999.0,87,-99.99,,,-99.99,0.000000,,2013-08-13 08:52:00,
2013-08-13 05:00:00,54.0,51.0,-100.00,NW,315,5.0,-999.0,90,-99.99,,,-99.99,0.000000,,2013-08-13 09:00:00,
2013-08-13 05:43:00,54.0,51.0,-100.00,NW,315,5.0,-999.0,90,-99.99,,,-99.99,0.000000,,2013-08-13 09:43:00,
2013-08-13 05:54:00,54.0,51.0,-100.00,NW,315,5.0,-999.0,90,-99.99,,,-99.99,0.000000,,2013-08-13 09:54:00,
2013-08-13 06:00:00,52.0,50.0,-100.00,NW,315,4.0,-999.0,91,-99.99,,,-99.99,0.000000,,2013-08-13 10:00:00,
2013-08-13 06:43:00,52.0,50.0,-100.00,NW,315,4.0,-999.0,91,-99.99,,,-99.99,0.000000,,2013-08-13 10:43:00,
2013-08-13 06:53:00,52.0,50.0,-100.00,NW,315,4.0,-999.0,91,-99.99,,,-99.99,0.000000,,2013-08-13 10:53:00,
2013-08-13 07:00:00,50.0,49.0,-100.00,WNW,292,2.0,-999.0,93,-99.99,,,-99.99,3.480000,,2013-08-13 11:00:00,
2013-08-13 07:42:00,50.0,49.0,-100.00,WNW,292,2.0,-999.0,93,-99.99,,,-99.99,3.480000,,2013-08-13 11:42:00,
2013-08-13 07:52:00,50.0,49.0,-100.00,WNW,292,2.0,-999.0,93,-99.99,,,-99.99,3.480000,,2013-08-13 11:52:00,
2013-08-13 08:00:00,51.0,49.0,-100.00,NW,315,3.0,-999.0,91,-99.99,,,-99.99,110.199997,,2013-08-13 12:00:00,
2013-08-13 08:42:00,51.0,49.0,-100.00,NW,315,3.0,-999.0,91,-99.99,,,-99.99,110.199997,,2013-08-13 12:42:00,
2013-08-13 08:52:00,51.0,49.0,-100.00,NW,315,3.0,-999.0,91,-99.99,,,-99.99,110.199997,,2013-08-13 12:52:00,
2013-08-13 09:00:00,55.0,48.0,-100.00,West,270,6.0,-999.0,78,-99.99,,,-99.99,270.279999,,2013-08-13 13:00:00,
2013-08-13 09:42:00,55.0,48.0,-100.00,West,270,6.0,-999.0,78,-99.99,,,-99.99,270.279999,,2013-08-13 13:42:00,
2013-08-13 09:52:00,55.0,48.0,-100.00,West,270,6.0,-999.0,78,-99.99,,,-99.99,270.279999,,2013-08-13 13:52:00,
2013-08-13 10:00:00,58.0,47.0,-100.00,SSW,202,10.0,-999.0,65,-99.99,,,-99.99,404.839996,,2013-08-13 14:00:00,
2013-08-13 10:42:00,58.0,47.0,-100.00,SSW,202,10.0,-999.0,65,-99.99,,,-99.99,404.839996,,2013-08-13 14:42:00,
2013-08-13 10:52:00,58.0,47.0,-100.00,SSW,202,10.0,-999.0,65,-99.99,,,-99.99,404.839996,,2013-08-13 14:52:00,
2013-08-13 11:00:00,61.0,47.0,-100.00,SW,225,10.0,-999.0,60,-99.99,,,-99.99,522.000000,,2013-08-13 15:00:00,
2013-08-13 11:44:00,61.0,47.0,-100.00,SW,225,10.0,-999.0,60,-99.99,,,-99.99,522.000000,,2013-08-13 15:44:00,
2013-08-13 11:54:00,61.0,47.0,-100.00,SW,225,10.0,-999.0,60,-99.99,,,-99.99,522.000000,,2013-08-13 15:54:00,
2013-08-13 12:00:00,61.0,48.0,-100.00,NW,315,7.0,-999.0,61,-99.99,,,-99.99,397.880005,,2013-08-13 16:00:00,
2013-08-13 12:45:00,61.0,48.0,-100.00,NW,315,7.0,-999.0,61,-99.99,,,-99.99,397.880005,,2013-08-13 16:45:00,
2013-08-13 12:54:00,61.0,48.0,-100.00,NW,315,7.0,-999.0,61,-99.99,,,-99.99,397.880005,,2013-08-13 16:54:00,
2013-08-13 13:00:00,64.0,46.0,-100.00,WSW,247,9.0,-999.0,53,-99.99,,,-99.99,511.559998,,2013-08-13 17:00:00,
2013-08-13 13:46:00,-999.0,-99.9,-100.00,WSW,247,9.0,-999.0,-999,-99.99,,,-99.99,,,2013-08-13 17:46:00,
2013-08-13 13:56:00,64.0,46.0,-100.00,WSW,247,9.0,-999.0,53,-99.99,,,-99.99,511.559998,,2013-08-13 17:56:00,
2013-08-13 14:00:00,65.0,46.0,-100.00,WSW,247,9.0,-999.0,50,-99.99,,,-99.99,489.519989,,2013-08-13 18:00:00,
2013-08-13 14:45:00,65.0,46.0,-100.00,WSW,247,9.0,-999.0,50,-99.99,,,-99.99,489.519989,,2013-08-13 18:45:00,
2013-08-13 14:56:00,65.0,46.0,-100.00,WSW,247,9.0,-999.0,50,-99.99,,,-99.99,489.519989,,2013-08-13 18:56:00,
2013-08-13 15:00:00,65.0,46.0,-100.00,NW,315,8.0,-999.0,49,-99.99,,,-99.99,430.359985,,2013-08-13 19:00:00,
2013-08-13 15:44:00,65.0,46.0,-100.00,NW,315,8.0,-999.0,49,-99.99,,,-99.99,430.359985,,2013-08-13 19:44:00,
2013-08-13 15:55:00,65.0,46.0,-100.00,NW,315,8.0,-999.0,49,-99.99,,,-99.99,430.359985,,2013-08-13 19:55:00,
2013-08-13 16:00:00,65.0,46.0,-100.00,WNW,292,9.0,-999.0,50,-99.99,,,-99.99,276.079987,,2013-08-13 20:00:00,
2013-08-13 16:45:00,65.0,46.0,-100.00,WNW,292,9.0,-999.0,50,-99.99,,,-99.99,276.079987,,2013-08-13 20:45:00,
2013-08-13 16:53:00,65.0,46.0,-100.00,WNW,292,9.0,-999.0,50,-99.99,,,-99.99,276.079987,,2013-08-13 20:53:00,
2013-08-13 17:00:00,66.0,45.0,-100.00,NW,315,9.0,-999.0,47,-99.99,,,-99.99,425.720001,,2013-08-13 21:00:00,
2013-08-13 17:46:00,66.0,45.0,-100.00,NW,315,9.0,-999.0,47,-99.99,,,-99.99,425.720001,,2013-08-13 21:46:00,
2013-08-13 17:54:00,66.0,45.0,-100.00,NW,315,9.0,-999.0,47,-99.99,,,-99.99,425.720001,,2013-08-13 21:54:00,
2013-08-13 18:00:00,66.0,43.0,-100.00,NW,315,9.0,-999.0,43,-99.99,,,-99.99,278.399994,,2013-08-13 22:00:00,
2013-08-13 18:50:00,66.0,43.0,-100.00,NW,315,9.0,-999.0,43,-99.99,,,-99.99,278.399994,,2013-08-13 22:50:00,
2013-08-13 18:57:00,66.0,43.0,-100.00,NW,315,9.0,-999.0,43,-99.99,,,-99.99,278.399994,,2013-08-13 22:57:00,
2013-08-13 19:00:00,65.0,44.0,-100.00,NW,315,8.0,-999.0,47,-99.99,,,-99.99,211.119995,,2013-08-13 23:00:00,
2013-08-13 19:47:00,65.0,44.0,-100.00,NW,315,8.0,-999.0,47,-99.99,,,-99.99,211.119995,,2013-08-13 23:47:00,
2013-08-13 19:57:00,65.0,44.0,-100.00,NW,315,8.0,-999.0,47,-99.99,,,-99.99,211.119995,,2013-08-13 23:57:00,
2013-08-13 20:00:00,62.0,45.0,-100.00,NW,315,6.0,-999.0,53,-99.99,,,-99.99,68.440002,,2013-08-14 00:00:00,
2013-08-13 20:42:00,62.0,45.0,-100.00,NW,315,6.0,-999.0,53,-99.99,,,-99.99,68.440002,,2013-08-14 00:42:00,
2013-08-13 20:52:00,62.0,45.0,-100.00,NW,315,6.0,-999.0,53,-99.99,,,-99.99,68.440002,,2013-08-14 00:52:00,
2013-08-13 21:00:00,60.0,45.0,-100.00,West,270,6.0,-999.0,57,-99.99,,,-99.99,15.080000,,2013-08-14 01:00:00,
2013-08-13 21:42:00,60.0,45.0,-100.00,West,270,6.0,-999.0,57,-99.99,,,-99.99,15.080000,,2013-08-14 01:42:00,
2013-08-13 21:52:00,60.0,45.0,-100.00,West,270,6.0,-999.0,57,-99.99,,,-99.99,15.080000,,2013-08-14 01:52:00,
2013-08-13 22:00:00,55.0,45.0,-100.00,NW,315,3.0,-999.0,70,-99.99,,,-99.99,0.000000,,2013-08-14 02:00:00,
2013-08-13 22:42:00,55.0,45.0,-100.00,NW,315,3.0,-999.0,70,-99.99,,,-99.99,0.000000,,2013-08-14 02:42:00,
2013-08-13 22:52:00,55.0,45.0,-100.00,NW,315,3.0,-999.0,70,-99.99,,,-99.99,0.000000,,2013-08-14 02:52:00,
2013-08-13 23:00:00,53.0,45.0,-100.00,NW,315,3.0,-999.0,72,-99.99,,,-99.99,0.000000,,2013-08-14 03:00:00,
2013-08-13 23:43:00,53.0,45.0,-100.00,NW,315,3.0,-999.0,72,-99.99,,,-99.99,0.000000,,2013-08-14 03:43:00,
2013-08-13 23:53:00,53.0,45.0,-100.00,NW,315,3.0,-999.0,72,-99.99,,,-99.99,0.000000,,2013-08-14 03:53:00,